Climatologie pour Saint-Brevin les Pins
Jour • Résumé pour décembre 9, 2017 Système :  Anglais    Métrique   Mixte
« - 1 jour
+ 1 jour »
Jour Semaine Mois Année Personnalisé
  Maximum : Minimum : Moyenne :
Température sous abri : TemperatureC °F 1.4 °F 5 °F
Point de rosée : DewpointC °F 0.0 °F 3.6 °F
Humidité : Humidity % 84 % 90 %
Vitesse du vent : WindSpeedKMH mph 0.0 mph 4.8 mph
Rafale : WindSpeedGustKMH mph - -
Direction :- - SSW
Pression : PressurehPa in 1003.9 in -
Précipitations : 3.3 in    
Historical Graphs
 
 
Tableau de données pour décembre 9, 2017
Heure Tempé Pt rosée Pression Vent Vitesse Rafale Humidité Taux pluie (/hr) Soleil
TemperatureC °F DewpointC °F PressurehPa in Calm     Humidity % HourlyPrecipMM in SolarRadiationWatts/m^2 W/m2 Conditions
00:00 2.8 °F 1.0 °F 1026.0 in NNW 6.4 mph 12.9 mph 88 % 0.0 in 0 W/m2
00:10 2.9 °F 1.0 °F 1026.0 in WNW 6.4 mph 16.1 mph 87 % 0.0 in 0 W/m2
00:15 3.0 °F 1.0 °F 1026.0 in NNW 4.8 mph 12.9 mph 87 % 0.0 in 0 W/m2
00:20 2.9 °F 1.0 °F 1026.0 in WNW 3.2 mph 12.9 mph 87 % 0.0 in 0 W/m2
00:25 2.8 °F 0.9 °F 1026.0 in WNW 3.2 mph 9.7 mph 87 % 0.0 in 0 W/m2
00:30 2.8 °F 0.8 °F 1026.0 in NNW 4.8 mph 9.7 mph 87 % 0.0 in 0 W/m2
00:35 2.7 °F 0.9 °F 1026.0 in NNW 3.2 mph 8.0 mph 88 % 0.0 in 0 W/m2
00:45 2.3 °F 0.5 °F 1026.0 in NW 6.4 mph 6.4 mph 88 % 0.0 in 0 W/m2
00:50 2.2 °F 0.4 °F 1026.0 in Calm   9.7 mph 88 % 0.0 in 0 W/m2
00:55 2.2 °F 0.5 °F 1025.6 in Calm   9.7 mph 89 % 0.0 in 0 W/m2
01:00 2.0 °F 0.4 °F 1025.6 in Calm   8.0 mph 89 % 0.0 in 0 W/m2
01:05 1.8 °F 0.3 °F 1025.6 in Calm   6.4 mph 90 % 0.0 in 0 W/m2
01:10 1.6 °F 0.1 °F 1025.6 in Calm   6.4 mph 90 % 0.0 in 0 W/m2
01:15 1.5 °F 0.0 °F 1025.6 in Calm   4.8 mph 90 % 0.0 in 0 W/m2
01:20 1.6 °F 0.1 °F 1025.6 in Calm   6.4 mph 90 % 0.0 in 0 W/m2
01:25 1.4 °F 0.1 °F 1025.6 in Calm   6.4 mph 91 % 0.0 in 0 W/m2
01:30 1.4 °F 0.1 °F 1025.3 in WNW 3.2 mph 4.8 mph 91 % 0.0 in 0 W/m2
01:35 1.4 °F 0.1 °F 1025.3 in NW 4.8 mph 9.7 mph 91 % 0.0 in 0 W/m2
01:40 1.4 °F 0.1 °F 1025.3 in Calm   9.7 mph 91 % 0.0 in 0 W/m2
01:45 1.6 °F 0.4 °F 1025.3 in Calm   11.3 mph 92 % 0.0 in 0 W/m2
01:50 1.5 °F 0.3 °F 1025.3 in NNW 4.8 mph 11.3 mph 92 % 0.0 in 0 W/m2
01:55 1.6 °F 0.4 °F 1025.3 in NNW 3.2 mph 11.3 mph 92 % 0.0 in 0 W/m2
02:00 1.7 °F 0.6 °F 1025.3 in North 4.8 mph 11.3 mph 92 % 0.0 in 0 W/m2
02:05 1.9 °F 0.7 °F 1025.3 in NW 1.6 mph 11.3 mph 92 % 0.0 in 0 W/m2
02:10 2.0 °F 0.8 °F 1025.3 in NW 1.6 mph 12.9 mph 92 % 0.0 in 0 W/m2
02:15 2.3 °F 1.1 °F 1025.3 in NW 1.6 mph 12.9 mph 92 % 0.0 in 0 W/m2
02:20 2.5 °F 1.3 °F 1024.9 in WNW 4.8 mph 11.3 mph 92 % 0.0 in 0 W/m2
02:25 2.7 °F 1.5 °F 1024.9 in WNW 3.2 mph 11.3 mph 92 % 0.0 in 0 W/m2
02:30 2.9 °F 1.6 °F 1024.9 in NW 6.4 mph 11.3 mph 91 % 0.0 in 0 W/m2
02:35 3.0 °F 1.7 °F 1024.9 in NW 3.2 mph 16.1 mph 91 % 0.0 in 0 W/m2
02:40 3.2 °F 1.7 °F 1024.9 in NW 9.7 mph 16.1 mph 90 % 0.0 in 0 W/m2
02:45 3.6 °F 2.1 °F 1024.9 in NW 6.4 mph 11.3 mph 90 % 0.0 in 0 W/m2
02:50 3.9 °F 2.3 °F 1024.9 in WNW 8.0 mph 14.5 mph 89 % 0.0 in 0 W/m2
03:00 4.6 °F 2.5 °F 1024.9 in WNW 11.3 mph 16.1 mph 86 % 0.0 in 0 W/m2
03:05 4.7 °F 2.4 °F 1024.9 in NW 4.8 mph 16.1 mph 85 % 0.0 in 0 W/m2
03:10 4.7 °F 2.4 °F 1024.9 in NW 8.0 mph 16.1 mph 85 % 0.0 in 0 W/m2
03:15 4.8 °F 2.3 °F 1024.9 in West 9.7 mph 16.1 mph 84 % 0.0 in 0 W/m2
03:20 4.6 °F 2.1 °F 1024.9 in NW 12.9 mph 14.5 mph 84 % 0.0 in 0 W/m2
03:25 4.4 °F 2.0 °F 1024.9 in WNW 4.8 mph 19.3 mph 84 % 0.0 in 0 W/m2
03:30 4.3 °F 2.0 °F 1024.9 in WNW 4.8 mph 19.3 mph 85 % 0.0 in 0 W/m2
03:35 4.6 °F 2.1 °F 1024.6 in WNW 8.0 mph 14.5 mph 84 % 0.0 in 0 W/m2
03:40 4.7 °F 2.2 °F 1024.6 in NW 1.6 mph 14.5 mph 84 % 0.0 in 0 W/m2
03:45 4.6 °F 2.1 °F 1024.6 in NW 1.6 mph 12.9 mph 84 % 0.0 in 0 W/m2
03:50 4.4 °F 2.0 °F 1024.6 in NNW 14.5 mph 14.5 mph 84 % 0.0 in 0 W/m2
03:55 4.4 °F 1.9 °F 1024.6 in WNW 6.4 mph 14.5 mph 84 % 0.0 in 0 W/m2
04:00 4.3 °F 2.0 °F 1024.6 in WNW 4.8 mph 14.5 mph 85 % 0.0 in 0 W/m2
04:05 4.4 °F 2.1 °F 1024.6 in NW 3.2 mph 14.5 mph 85 % 0.0 in 0 W/m2
04:20 4.1 °F 2.1 °F 1024.6 in WNW 3.2 mph 16.1 mph 87 % 0.0 in 0 W/m2
04:25 4.1 °F 1.9 °F 1024.6 in WNW 8.0 mph 9.7 mph 86 % 0.0 in 0 W/m2
04:30 4.1 °F 1.9 °F 1024.6 in WNW 4.8 mph 11.3 mph 86 % 0.0 in 0 W/m2
04:35 4.1 °F 2.1 °F 1024.6 in NW 4.8 mph 11.3 mph 87 % 0.0 in 0 W/m2
04:40 4.1 °F 2.1 °F 1024.3 in WNW 4.8 mph 11.3 mph 87 % 0.0 in 0 W/m2
04:45 4.3 °F 2.4 °F 1024.3 in WNW 4.8 mph 12.9 mph 87 % 0.0 in 0 W/m2
04:50 4.4 °F 2.3 °F 1024.3 in WNW 3.2 mph 14.5 mph 86 % 0.0 in 0 W/m2
04:55 4.5 °F 2.4 °F 1024.3 in WNW 11.3 mph 14.5 mph 86 % 0.0 in 0 W/m2
05:00 4.5 °F 2.4 °F 1024.3 in WNW 6.4 mph 14.5 mph 86 % 0.0 in 0 W/m2
05:05 4.5 °F 2.4 °F 1024.3 in NW 1.6 mph 14.5 mph 86 % 0.0 in 0 W/m2
05:10 4.4 °F 2.3 °F 1024.3 in NW 6.4 mph 14.5 mph 86 % 0.0 in 0 W/m2
05:15 4.1 °F 2.1 °F 1024.3 in NW 1.6 mph 11.3 mph 87 % 0.0 in 0 W/m2
05:20 3.8 °F 1.8 °F 1024.3 in Calm   8.0 mph 87 % 0.0 in 0 W/m2
05:25 3.8 °F 2.0 °F 1024.3 in NW 3.2 mph 9.7 mph 88 % 0.0 in 0 W/m2
05:30 4.0 °F 2.4 °F 1024.3 in NW 4.8 mph 9.7 mph 89 % 0.0 in 0 W/m2
05:35 4.3 °F 2.6 °F 1024.3 in NW 4.8 mph 9.7 mph 89 % 0.0 in 0 W/m2
05:40 4.4 °F 2.6 °F 1024.3 in WNW 3.2 mph 9.7 mph 88 % 0.0 in 0 W/m2
05:45 4.7 °F 2.8 °F 1024.3 in NW 4.8 mph 9.7 mph 88 % 0.0 in 0 W/m2
05:55 4.8 °F 2.9 °F 1024.3 in Calm   12.9 mph 87 % 0.0 in 0 W/m2
06:00 4.7 °F 2.7 °F 1024.3 in WNW 3.2 mph 8.0 mph 87 % 0.0 in 0 W/m2
06:05 4.6 °F 2.6 °F 1024.3 in NW 4.8 mph 9.7 mph 87 % 0.0 in 0 W/m2
06:10 4.4 °F 2.5 °F 1023.9 in WNW 3.2 mph 9.7 mph 87 % 0.0 in 0 W/m2
06:15 4.4 °F 2.5 °F 1023.9 in WNW 6.4 mph 11.3 mph 87 % 0.0 in 0 W/m2
06:20 4.3 °F 2.3 °F 1023.9 in WNW 4.8 mph 11.3 mph 87 % 0.0 in 0 W/m2
06:25 4.2 °F 2.4 °F 1023.9 in WNW 4.8 mph 9.7 mph 88 % 0.0 in 0 W/m2
06:30 4.2 °F 2.4 °F 1023.6 in WNW 6.4 mph 9.7 mph 88 % 0.0 in 0 W/m2
06:45 4.2 °F 2.4 °F 1023.6 in Calm   16.1 mph 88 % 0.0 in 0 W/m2
06:50 4.3 °F 2.5 °F 1023.6 in WNW 6.4 mph 12.9 mph 88 % 0.0 in 0 W/m2
06:55 4.2 °F 2.2 °F 1023.6 in NW 8.0 mph 11.3 mph 87 % 0.0 in 0 W/m2
07:00 4.3 °F 2.5 °F 1023.6 in NW 6.4 mph 14.5 mph 88 % 0.0 in 0 W/m2
07:05 4.3 °F 2.5 °F 1023.6 in NW 4.8 mph 14.5 mph 88 % 0.0 in 0 W/m2
07:10 4.4 °F 2.6 °F 1023.6 in NNW 6.4 mph 14.5 mph 88 % 0.0 in 0 W/m2
07:15 4.5 °F 2.5 °F 1023.6 in Calm   14.5 mph 87 % 0.0 in 0 W/m2
07:20 4.4 °F 2.6 °F 1023.6 in WNW 4.8 mph 12.9 mph 88 % 0.0 in 0 W/m2
07:25 4.3 °F 2.5 °F 1023.6 in WNW 3.2 mph 12.9 mph 88 % 0.0 in 0 W/m2
07:30 4.3 °F 2.5 °F 1023.6 in WNW 1.6 mph 12.9 mph 88 % 0.0 in 0 W/m2
07:35 4.2 °F 2.6 °F 1023.9 in WNW 3.2 mph 11.3 mph 89 % 0.0 in 0 W/m2
07:45 4.0 °F 2.4 °F 1023.9 in WNW 6.4 mph 8.0 mph 89 % 0.0 in 0 W/m2
07:50 3.8 °F 2.2 °F 1023.9 in WNW 1.6 mph 8.0 mph 89 % 0.0 in 0 W/m2
07:55 3.6 °F 2.1 °F 1023.9 in NNW 9.7 mph 9.7 mph 90 % 0.0 in 0 W/m2
08:05 3.7 °F 2.2 °F 1023.9 in Calm   9.7 mph 90 % 0.0 in 0 W/m2
08:15 3.5 °F 2.2 °F 1023.9 in Calm   6.4 mph 91 % 0.0 in 0 W/m2
08:20 3.3 °F 2.0 °F 1023.9 in NW 1.6 mph 6.4 mph 91 % 0.0 in 0 W/m2
08:25 3.2 °F 1.8 °F 1023.6 in Calm   4.8 mph 91 % 0.0 in 0 W/m2
08:30 3.0 °F 1.8 °F 1023.6 in Calm   8.0 mph 92 % 0.0 in 0 W/m2
08:40 2.8 °F 1.7 °F 1023.6 in NW 3.2 mph 6.4 mph 92 % 0.0 in 5 W/m2
08:45 2.8 °F 1.7 °F 1023.6 in Calm   6.4 mph 92 % 0.0 in 5 W/m2
08:50 2.8 °F 1.8 °F 1023.6 in Calm   4.8 mph 93 % 0.0 in 7 W/m2
08:55 2.8 °F 1.8 °F 1023.6 in Calm   3.2 mph 93 % 0.0 in 11 W/m2
09:00 2.8 °F 1.8 °F 1023.6 in Calm   1.6 mph 93 % 0.0 in 14 W/m2
09:05 2.7 °F 1.7 °F 1023.6 in Calm   1.6 mph 93 % 0.0 in 18 W/m2
09:10 2.7 °F 1.6 °F 1023.6 in Calm   1.6 mph 93 % 0.0 in 23 W/m2
09:15 2.9 °F 1.9 °F 1023.6 in Calm   6.4 mph 93 % 0.0 in 26 W/m2
09:20 3.3 °F 2.4 °F 1023.2 in Calm   6.4 mph 94 % 0.0 in 30 W/m2
09:25 3.3 °F 2.3 °F 1023.2 in ENE 3.2 mph 6.4 mph 93 % 0.0 in 33 W/m2
09:30 3.2 °F 2.2 °F 1023.6 in Calm   8.0 mph 93 % 0.0 in 39 W/m2
09:35 3.1 °F 1.9 °F 1023.6 in ESE 4.8 mph 8.0 mph 92 % 0.0 in 46 W/m2
09:45 3.0 °F 1.8 °F 1023.6 in ESE 3.2 mph 4.8 mph 92 % 0.0 in 54 W/m2
09:50 2.9 °F 1.8 °F 1023.6 in ESE 1.6 mph 4.8 mph 92 % 0.0 in 60 W/m2
09:55 2.9 °F 1.8 °F 1023.6 in Calm   4.8 mph 92 % 0.0 in 65 W/m2
10:00 3.0 °F 1.8 °F 1023.6 in Calm   4.8 mph 92 % 0.0 in 76 W/m2
10:05 3.1 °F 1.9 °F 1023.2 in Calm   3.2 mph 92 % 0.0 in 81 W/m2
10:10 3.1 °F 1.9 °F 1023.2 in Calm   3.2 mph 92 % 0.0 in 83 W/m2
10:15 3.2 °F 2.0 °F 1023.2 in ESE 3.2 mph 6.4 mph 92 % 0.0 in 84 W/m2
10:20 3.2 °F 2.0 °F 1023.2 in Calm   6.4 mph 92 % 0.0 in 90 W/m2
10:25 3.3 °F 2.0 °F 1023.2 in ESE 3.2 mph 6.4 mph 91 % 0.0 in 93 W/m2
10:30 3.3 °F 1.9 °F 1023.2 in SE 3.2 mph 6.4 mph 91 % 0.0 in 98 W/m2
10:35 3.3 °F 1.9 °F 1022.9 in SE 6.4 mph 6.4 mph 91 % 0.0 in 105 W/m2
10:40 3.3 °F 1.9 °F 1022.9 in Calm   6.4 mph 91 % 0.0 in 111 W/m2
10:45 3.3 °F 2.0 °F 1023.2 in SE 1.6 mph 6.4 mph 91 % 0.0 in 116 W/m2
10:50 3.4 °F 2.1 °F 1023.2 in SE 4.8 mph 4.8 mph 91 % 0.0 in 109 W/m2
10:55 3.6 °F 2.2 °F 1023.2 in SE 3.2 mph 4.8 mph 91 % 0.0 in 114 W/m2
11:00 3.7 °F 2.4 °F 1023.2 in Calm   4.8 mph 91 % 0.0 in 114 W/m2
11:05 3.8 °F 2.3 °F 1023.2 in Calm   8.0 mph 90 % 0.0 in 127 W/m2
11:10 4.1 °F 2.6 °F 1023.2 in ESE 1.6 mph 8.0 mph 90 % 0.0 in 139 W/m2
11:15 4.2 °F 2.5 °F 1023.2 in SSE 4.8 mph 8.0 mph 89 % 0.0 in 130 W/m2
11:20 4.2 °F 2.7 °F 1022.9 in SE 1.6 mph 8.0 mph 90 % 0.0 in 121 W/m2
11:25 4.2 °F 2.6 °F 1022.9 in Calm   8.0 mph 89 % 0.0 in 139 W/m2
11:30 4.4 °F 2.8 °F 1022.9 in Calm   4.8 mph 89 % 0.0 in 174 W/m2
11:35 4.7 °F 3.1 °F 1022.9 in SE 4.8 mph 8.0 mph 89 % 0.0 in 218 W/m2
11:40 4.9 °F 3.1 °F 1022.9 in SE 6.4 mph 8.0 mph 88 % 0.0 in 183 W/m2
11:45 4.9 °F 3.0 °F 1022.9 in Calm   8.0 mph 87 % 0.0 in 163 W/m2
11:50 5.1 °F 3.1 °F 1022.6 in ESE 6.4 mph 6.4 mph 87 % 0.0 in 148 W/m2
11:55 5.2 °F 3.2 °F 1022.6 in SE 3.2 mph 6.4 mph 87 % 0.0 in 141 W/m2
12:00 5.2 °F 3.2 °F 1022.6 in SE 4.8 mph 8.0 mph 87 % 0.0 in 130 W/m2
12:05 5.3 °F 3.5 °F 1022.2 in Calm   8.0 mph 88 % 0.0 in 141 W/m2
12:10 5.3 °F 3.5 °F 1022.2 in SE 6.4 mph 9.7 mph 88 % 0.0 in 130 W/m2
12:20 5.3 °F 3.7 °F 1021.9 in Calm   11.3 mph 89 % 0.0 in 132 W/m2
12:25 5.3 °F 3.5 °F 1021.9 in SSE 6.4 mph 9.7 mph 88 % 0.0 in 137 W/m2
12:30 5.3 °F 3.5 °F 1021.9 in SSE 6.4 mph 9.7 mph 88 % 0.0 in 162 W/m2
12:35 5.3 °F 3.5 °F 1021.6 in SSE 6.4 mph 11.3 mph 88 % 0.0 in 132 W/m2
12:40 5.4 °F 3.4 °F 1021.6 in ESE 3.2 mph 11.3 mph 87 % 0.0 in 121 W/m2
12:45 5.4 °F 3.4 °F 1021.6 in SE 4.8 mph 9.7 mph 87 % 0.0 in 137 W/m2
12:55 5.4 °F 3.4 °F 1021.2 in South 6.4 mph 9.7 mph 87 % 0.0 in 109 W/m2
13:00 5.4 °F 3.5 °F 1021.2 in South 3.2 mph 9.7 mph 87 % 0.0 in 111 W/m2
13:05 5.5 °F 3.5 °F 1021.2 in SSE 6.4 mph 9.7 mph 87 % 0.0 in 104 W/m2
13:10 5.7 °F 3.7 °F 1020.9 in SSE 3.2 mph 9.7 mph 87 % 0.0 in 134 W/m2
13:15 5.9 °F 3.9 °F 1020.9 in SSE 4.8 mph 11.3 mph 87 % 0.0 in 179 W/m2
13:20 6.1 °F 3.9 °F 1020.9 in South 8.0 mph 11.3 mph 86 % 0.0 in 151 W/m2
13:25 6.1 °F 3.8 °F 1020.9 in SSE 6.4 mph 11.3 mph 85 % 0.0 in 121 W/m2
13:30 6.2 °F 3.9 °F 1020.9 in SE 1.6 mph 9.7 mph 85 % 0.0 in 113 W/m2
13:35 6.3 °F 4.0 °F 1020.5 in SSE 4.8 mph 8.0 mph 85 % 0.0 in 123 W/m2
13:40 6.5 °F 4.2 °F 1020.5 in SE 3.2 mph 8.0 mph 85 % 0.0 in 137 W/m2
13:45 6.6 °F 4.3 °F 1020.2 in SSE 3.2 mph 12.9 mph 85 % 0.0 in 120 W/m2
13:50 6.6 °F 4.0 °F 1020.2 in SSE 6.4 mph 12.9 mph 84 % 0.0 in 76 W/m2
13:55 6.6 °F 4.0 °F 1019.9 in Calm   12.9 mph 84 % 0.0 in 63 W/m2
14:00 6.5 °F 4.2 °F 1019.9 in SSE 8.0 mph 11.3 mph 85 % 0.3 in 53 W/m2
14:05 6.4 °F 4.4 °F 1019.9 in South 1.6 mph 11.3 mph 87 % 0.3 in 72 W/m2
14:10 6.3 °F 4.7 °F 1019.5 in South 3.2 mph 11.3 mph 89 % 0.3 in 98 W/m2
14:15 6.3 °F 4.8 °F 1019.5 in SSE 1.6 mph 6.4 mph 90 % 0.3 in 100 W/m2
14:20 6.4 °F 4.9 °F 1019.5 in SE 4.8 mph 6.4 mph 90 % 0.3 in 93 W/m2
14:25 6.4 °F 4.9 °F 1019.2 in SE 6.4 mph 8.0 mph 90 % 0.3 in 93 W/m2
14:30 6.4 °F 4.9 °F 1019.2 in Calm   8.0 mph 90 % 0.3 in 88 W/m2
14:35 6.4 °F 4.9 °F 1019.2 in SE 4.8 mph 6.4 mph 90 % 0.3 in 81 W/m2
14:45 6.5 °F 5.0 °F 1018.8 in Calm   8.0 mph 90 % 0.3 in 69 W/m2
14:50 6.5 °F 5.0 °F 1018.8 in SSE 3.2 mph 8.0 mph 90 % 0.3 in 65 W/m2
14:55 6.5 °F 5.0 °F 1018.5 in South 3.2 mph 8.0 mph 90 % 0.5 in 60 W/m2
15:10 6.6 °F 5.0 °F 1018.2 in SSE 3.2 mph 9.7 mph 90 % 0.3 in 40 W/m2
15:15 6.6 °F 5.0 °F 1017.8 in SSE 6.4 mph 9.7 mph 90 % 0.3 in 47 W/m2
15:20 6.6 °F 5.0 °F 1017.8 in SSE 3.2 mph 12.9 mph 90 % 0.3 in 54 W/m2
15:25 6.6 °F 5.1 °F 1017.5 in SSE 3.2 mph 12.9 mph 90 % 0.3 in 54 W/m2
15:30 6.7 °F 5.1 °F 1017.5 in SSE 3.2 mph 9.7 mph 90 % 0.3 in 40 W/m2
15:35 6.7 °F 5.1 °F 1017.5 in SSE 1.6 mph 8.0 mph 90 % 0.3 in 35 W/m2
15:40 6.7 °F 5.1 °F 1017.5 in SSE 3.2 mph 6.4 mph 90 % 0.3 in 39 W/m2
15:45 6.7 °F 5.1 °F 1017.2 in SSE 3.2 mph 8.0 mph 90 % 0.3 in 37 W/m2
15:50 6.7 °F 5.2 °F 1017.2 in SSE 1.6 mph 8.0 mph 90 % 0.3 in 28 W/m2
15:55 6.8 °F 5.3 °F 1017.2 in SSE 1.6 mph 6.4 mph 90 % 0.0 in 23 W/m2
16:00 6.8 °F 5.3 °F 1016.8 in South 3.2 mph 6.4 mph 90 % 0.0 in 19 W/m2
16:05 6.8 °F 5.3 °F 1016.8 in South 6.4 mph 8.0 mph 90 % 0.0 in 21 W/m2
16:10 6.8 °F 5.3 °F 1016.8 in SSE 3.2 mph 8.0 mph 90 % 0.0 in 21 W/m2
16:15 6.8 °F 5.3 °F 1016.8 in SSE 3.2 mph 8.0 mph 90 % 0.0 in 19 W/m2
16:20 6.8 °F 5.4 °F 1016.5 in South 3.2 mph 9.7 mph 91 % 0.0 in 21 W/m2
16:25 6.8 °F 5.4 °F 1016.5 in South 3.2 mph 9.7 mph 91 % 0.0 in 25 W/m2
16:30 6.8 °F 5.5 °F 1016.5 in SSW 8.0 mph 12.9 mph 91 % 0.3 in 21 W/m2
16:35 6.8 °F 5.3 °F 1016.5 in SSW 8.0 mph 12.9 mph 90 % 0.3 in 16 W/m2
16:40 6.8 °F 5.3 °F 1016.1 in SSW 8.0 mph 11.3 mph 90 % 0.3 in 14 W/m2
16:45 6.8 °F 5.4 °F 1016.1 in South 4.8 mph 11.3 mph 91 % 0.3 in 12 W/m2
16:55 6.7 °F 5.3 °F 1015.8 in South 6.4 mph 11.3 mph 91 % 0.3 in 5 W/m2
17:00 6.6 °F 5.2 °F 1015.8 in South 4.8 mph 11.3 mph 91 % 0.3 in 0 W/m2
17:05 6.6 °F 5.2 °F 1015.8 in SSE 1.6 mph 8.0 mph 91 % 0.3 in 0 W/m2
17:10 6.6 °F 5.2 °F 1015.8 in SE 6.4 mph 8.0 mph 91 % 0.3 in 0 W/m2
17:15 6.5 °F 5.1 °F 1015.8 in South 1.6 mph 8.0 mph 91 % 0.3 in 0 W/m2
17:20 6.5 °F 5.3 °F 1015.5 in SE 4.8 mph 8.0 mph 92 % 0.3 in 0 W/m2
17:25 6.4 °F 5.2 °F 1015.5 in SE 4.8 mph 6.4 mph 92 % 0.5 in 0 W/m2
17:30 6.3 °F 5.1 °F 1015.1 in SE 1.6 mph 6.4 mph 92 % 0.3 in 0 W/m2
17:35 6.2 °F 5.2 °F 1015.1 in SSE 4.8 mph 9.7 mph 93 % 0.3 in 0 W/m2
17:45 6.2 °F 5.1 °F 1014.8 in Calm   8.0 mph 93 % 0.3 in 0 W/m2
17:50 6.1 °F 5.1 °F 1014.4 in SSE 3.2 mph 8.0 mph 93 % 0.3 in 0 W/m2
17:55 6.1 °F 5.0 °F 1014.4 in SSE 1.6 mph 8.0 mph 93 % 0.3 in 0 W/m2
18:00 6.1 °F 5.2 °F 1014.4 in Calm   6.4 mph 94 % 0.3 in 0 W/m2
18:05 6.1 °F 5.2 °F 1014.1 in Calm   6.4 mph 94 % 0.3 in 0 W/m2
18:10 6.1 °F 5.2 °F 1014.1 in SSE 1.6 mph 6.4 mph 94 % 0.3 in 0 W/m2
18:15 6.0 °F 5.1 °F 1013.8 in SE 1.6 mph 12.9 mph 94 % 0.3 in 0 W/m2
18:20 6.0 °F 5.1 °F 1013.8 in SSE 3.2 mph 12.9 mph 94 % 0.3 in 0 W/m2
18:25 6.0 °F 5.1 °F 1013.8 in SE 3.2 mph 8.0 mph 94 % 0.0 in 0 W/m2
18:30 5.9 °F 5.1 °F 1013.8 in SSE 4.8 mph 8.0 mph 94 % 0.0 in 0 W/m2
18:35 5.9 °F 5.1 °F 1013.4 in SSE 4.8 mph 8.0 mph 94 % 0.0 in 0 W/m2
18:40 5.9 °F 4.8 °F 1013.8 in SE 6.4 mph 11.3 mph 93 % 0.3 in 0 W/m2
18:45 5.9 °F 4.8 °F 1013.8 in SSE 4.8 mph 11.3 mph 93 % 0.3 in 0 W/m2
18:50 5.9 °F 4.8 °F 1013.4 in SSE 8.0 mph 9.7 mph 93 % 0.3 in 0 W/m2
18:55 5.9 °F 5.1 °F 1013.4 in SSE 8.0 mph 9.7 mph 94 % 0.3 in 0 W/m2
19:00 5.9 °F 4.9 °F 1013.1 in SSE 4.8 mph 12.9 mph 93 % 0.3 in 0 W/m2
19:05 6.0 °F 5.0 °F 1013.1 in SSE 4.8 mph 12.9 mph 93 % 0.3 in 0 W/m2
19:10 6.0 °F 5.1 °F 1013.1 in SSE 3.2 mph 11.3 mph 94 % 0.3 in 0 W/m2
19:15 5.9 °F 5.1 °F 1013.1 in SSE 3.2 mph 11.3 mph 94 % 0.5 in 0 W/m2
19:20 6.0 °F 5.1 °F 1012.8 in SSE 8.0 mph 12.9 mph 94 % 0.5 in 0 W/m2
19:25 5.9 °F 5.1 °F 1012.8 in SSE 4.8 mph 12.9 mph 94 % 0.5 in 0 W/m2
19:30 5.9 °F 5.1 °F 1012.8 in South 4.8 mph 12.9 mph 94 % 0.5 in 0 W/m2
19:35 5.9 °F 5.1 °F 1012.4 in SSE 6.4 mph 11.3 mph 94 % 0.5 in 0 W/m2
19:40 5.9 °F 5.2 °F 1012.4 in SSE 3.2 mph 11.3 mph 95 % 0.5 in 0 W/m2
19:45 5.9 °F 5.2 °F 1012.1 in SE 8.0 mph 12.9 mph 95 % 0.5 in 0 W/m2
19:50 5.9 °F 5.1 °F 1012.1 in SSE 4.8 mph 12.9 mph 95 % 0.5 in 0 W/m2
19:55 5.9 °F 5.1 °F 1012.1 in SSE 12.9 mph 12.9 mph 95 % 0.5 in 0 W/m2
20:00 5.9 °F 5.1 °F 1011.7 in SSE 14.5 mph 14.5 mph 95 % 0.5 in 0 W/m2
20:05 5.9 °F 5.1 °F 1011.7 in SE 9.7 mph 14.5 mph 95 % 0.8 in 0 W/m2
20:10 5.9 °F 5.1 °F 1011.4 in South 8.0 mph 14.5 mph 95 % 0.8 in 0 W/m2
20:15 5.9 °F 5.1 °F 1011.4 in ESE 4.8 mph 17.7 mph 95 % 0.5 in 0 W/m2
20:20 5.9 °F 5.3 °F 1011.1 in SSE 11.3 mph 17.7 mph 96 % 0.5 in 0 W/m2
20:25 5.9 °F 5.3 °F 1010.7 in SSE 4.8 mph 14.5 mph 96 % 0.5 in 0 W/m2
20:30 5.9 °F 5.3 °F 1010.7 in SSE 8.0 mph 14.5 mph 96 % 0.5 in 0 W/m2
20:35 5.9 °F 5.4 °F 1010.7 in SSE 4.8 mph 16.1 mph 96 % 0.5 in 0 W/m2
20:40 5.9 °F 5.4 °F 1010.4 in SSE 9.7 mph 16.1 mph 96 % 0.5 in 0 W/m2
20:45 6.0 °F 5.4 °F 1010.4 in SSE 6.4 mph 16.1 mph 96 % 0.5 in 0 W/m2
20:50 6.1 °F 5.5 °F 1010.4 in SSE 8.0 mph 19.3 mph 96 % 0.5 in 0 W/m2
21:00 6.1 °F 5.5 °F 1010.0 in SE 12.9 mph 19.3 mph 96 % 0.5 in 0 W/m2
21:05 6.2 °F 5.6 °F 1009.7 in SSE 4.8 mph 17.7 mph 96 % 0.5 in 0 W/m2
21:10 6.2 °F 5.6 °F 1009.7 in SSE 8.0 mph 17.7 mph 96 % 0.5 in 0 W/m2
21:15 6.3 °F 5.7 °F 1009.7 in SSE 8.0 mph 19.3 mph 96 % 0.5 in 0 W/m2
21:20 6.3 °F 5.7 °F 1009.7 in SE 9.7 mph 19.3 mph 96 % 0.5 in 0 W/m2
21:25 6.4 °F 5.8 °F 1009.4 in SSE 12.9 mph 20.9 mph 96 % 0.5 in 0 W/m2
21:30 6.3 °F 5.7 °F 1009.0 in SSE 12.9 mph 20.9 mph 96 % 0.5 in 0 W/m2
21:35 6.3 °F 5.7 °F 1009.0 in South 6.4 mph 19.3 mph 96 % 0.3 in 0 W/m2
21:40 6.4 °F 5.9 °F 1008.7 in South 12.9 mph 22.5 mph 97 % 0.3 in 0 W/m2
21:45 6.4 °F 5.9 °F 1008.4 in SE 9.7 mph 22.5 mph 97 % 0.3 in 0 W/m2
21:50 6.4 °F 5.9 °F 1008.4 in SSE 11.3 mph 22.5 mph 97 % 0.3 in 0 W/m2
22:00 6.6 °F 6.1 °F 1008.0 in SE 16.1 mph 20.9 mph 97 % 0.0 in 0 W/m2
22:05 6.7 °F 6.2 °F 1007.7 in South 6.4 mph 22.5 mph 97 % 0.0 in 0 W/m2
22:10 6.7 °F 6.3 °F 1007.7 in South 9.7 mph 22.5 mph 97 % 0.0 in 0 W/m2
22:15 6.8 °F 6.3 °F 1007.3 in SSE 17.7 mph 19.3 mph 97 % 0.0 in 0 W/m2
22:20 6.8 °F 6.4 °F 1007.3 in SSE 4.8 mph 22.5 mph 97 % 0.3 in 0 W/m2
22:25 6.9 °F 6.4 °F 1007.0 in South 6.4 mph 22.5 mph 97 % 0.3 in 0 W/m2
22:30 7.0 °F 6.6 °F 1006.7 in South 8.0 mph 24.1 mph 97 % 0.3 in 0 W/m2
22:35 7.1 °F 6.7 °F 1006.7 in SSE 9.7 mph 24.1 mph 97 % 0.3 in 0 W/m2
22:40 7.2 °F 6.7 °F 1006.7 in SE 16.1 mph 22.5 mph 97 % 0.3 in 0 W/m2
22:45 7.3 °F 6.8 °F 1006.7 in South 19.3 mph 24.1 mph 97 % 0.3 in 0 W/m2
22:50 7.4 °F 6.9 °F 1006.3 in SSW 9.7 mph 24.1 mph 97 % 0.3 in 0 W/m2
22:55 7.4 °F 7.0 °F 1006.3 in South 12.9 mph 24.1 mph 97 % 0.5 in 0 W/m2
23:00 7.6 °F 7.1 °F 1006.0 in South 11.3 mph 19.3 mph 97 % 0.5 in 0 W/m2
23:05 7.7 °F 7.2 °F 1006.0 in SSE 9.7 mph 17.7 mph 97 % 0.5 in 0 W/m2
23:10 7.8 °F 7.4 °F 1005.6 in South 14.5 mph 29.0 mph 97 % 0.5 in 0 W/m2
23:15 7.9 °F 7.5 °F 1005.3 in South 6.4 mph 29.0 mph 97 % 0.8 in 0 W/m2
23:20 7.9 °F 7.5 °F 1005.3 in South 9.7 mph 20.9 mph 97 % 0.8 in 0 W/m2
23:25 7.9 °F 7.5 °F 1005.0 in SSE 4.8 mph 20.9 mph 97 % 0.8 in 0 W/m2
23:30 7.9 °F 7.5 °F 1005.0 in SSE 11.3 mph 20.9 mph 97 % 1.0 in 0 W/m2
23:35 8.1 °F 7.6 °F 1004.6 in SSE 16.1 mph 20.9 mph 97 % 1.0 in 0 W/m2
23:45 8.3 °F 7.8 °F 1003.9 in South 16.1 mph 29.0 mph 97 % 1.0 in 0 W/m2
23:55 8.4 °F 7.9 °F 1003.9 in SSE 8.0 mph 33.8 mph 97 % 0.8 in 0 W/m2
Avec l'autorisation de Weather Underground - 1.5 mb